Time;durP1;ratioP1;P1;durP2;ratioP2;P2;SDS_P1;SDS_P2;PMS_P1;PMS_P2;Temp;Humidity;BMP_temperature;BMP_pressure;BME280_temperature;BME280_humidity;BME280_pressure;Samples;Min_cycle;Max_cycle;Signal;HPM_P1;HPM_P2
2023/09/21 00:01:03;;;;;;;;;;;;;;;24.93;39.70;100816.00;4984492;28;20016;-92
2023/09/21 00:03:30;;;;;;;;;;;;;;;24.89;39.75;100812.34;4984424;28;20382;-91
2023/09/21 00:05:56;;;;;;;;;;;;;;;24.84;39.73;100810.66;4984313;28;19998;-91
2023/09/21 00:08:28;;;;;;;;;;;;;;;24.81;39.93;100813.28;4987000;28;19952;-91
2023/09/21 00:10:54;;;;;;;;;;;;;;;24.78;39.75;100808.50;4987798;28;19922;-91
2023/09/21 00:13:27;;;;;;;;;;;;;;;24.71;39.90;100809.03;4987587;28;20610;-91
2023/09/21 00:15:56;;;;;;;;;;;;;;;24.69;39.98;100814.06;4982385;28;20005;-92
2023/09/21 00:18:23;;;;;;;;;;;;;;;24.69;40.02;100808.59;4984524;28;20614;-91
2023/09/21 00:20:56;;;;;;;;;;;;;;;24.67;39.90;100813.63;4985987;28;19972;-92
2023/09/21 00:23:25;;;;;;;;;;;;;;;24.67;39.85;100803.47;4984889;28;19925;-92
2023/09/21 00:25:57;;;;;;;;;;;;;;;24.71;39.87;100800.81;4999281;28;19921;-92
2023/09/21 00:28:23;;;;;;;;;;;;;;;24.71;39.99;100800.81;4984136;28;19922;-92
2023/09/21 00:30:52;;;;;;;;;;;;;;;24.68;40.02;100791.34;5006354;28;19980;-92
2023/09/21 00:33:22;;;;;;;;;;;;;;;24.70;40.00;100791.81;4984857;28;20012;-92
2023/09/21 00:35:58;;;;;;;;;;;;;;;24.70;39.86;100797.28;4982173;28;19918;-91
2023/09/21 00:38:25;;;;;;;;;;;;;;;24.69;39.86;100784.72;4982700;28;20614;-92
2023/09/21 00:40:55;;;;;;;;;;;;;;;24.67;40.02;100788.97;4984544;28;19952;-92
2023/09/21 00:43:25;;;;;;;;;;;;;;;24.63;39.99;100786.09;4982743;28;19976;-91
2023/09/21 00:45:57;;;;;;;;;;;;;;;24.61;40.00;100784.84;4982547;28;19926;-91
2023/09/21 00:48:25;;;;;;;;;;;;;;;24.57;40.04;100787.47;4995855;28;19926;-92
2023/09/21 00:50:54;;;;;;;;;;;;;;;24.55;40.22;100783.47;4998986;28;19937;-92
2023/09/21 00:53:23;;;;;;;;;;;;;;;24.53;40.10;100783.81;4986386;28;19922;-92
2023/09/21 00:55:59;;;;;;;;;;;;;;;24.52;40.21;100787.69;4985430;28;19926;-92
2023/09/21 00:58:25;;;;;;;;;;;;;;;24.53;40.21;100783.00;4983838;28;19925;-92
2023/09/21 01:00:54;;;;;;;;;;;;;;;24.52;40.11;100781.41;4984537;28;19917;-91
2023/09/21 01:03:24;;;;;;;;;;;;;;;24.52;40.32;100781.41;4985300;28;20041;-91
2023/09/21 01:05:57;;;;;;;;;;;;;;;24.50;40.11;100778.22;4985635;28;19925;-92
2023/09/21 01:08:29;;;;;;;;;;;;;;;24.47;40.25;100776.16;4983280;28;19922;-91
2023/09/21 01:10:55;;;;;;;;;;;;;;;24.45;40.34;100770.22;4996780;28;19928;-92
2023/09/21 01:13:26;;;;;;;;;;;;;;;24.43;40.32;100767.03;4982977;28;19925;-91
2023/09/21 01:16:17;;;;;;;;;;;;;;;24.43;40.19;100769.78;4975725;28;19921;-91
2023/09/21 01:18:44;;;;;;;;;;;;;;;24.41;40.17;100765.41;4980971;28;19926;-91
2023/09/21 01:21:17;;;;;;;;;;;;;;;24.39;40.21;100773.16;4983891;28;19972;-90
2023/09/21 01:23:49;;;;;;;;;;;;;;;24.33;40.22;100768.25;5000452;28;19926;-91
2023/09/21 01:26:18;;;;;;;;;;;;;;;24.25;40.46;100761.72;4999591;28;19987;-91
2023/09/21 01:28:52;;;;;;;;;;;;;;;24.22;40.40;100762.38;4981693;28;19918;-90
2023/09/21 01:31:25;;;;;;;;;;;;;;;24.21;40.38;100760.78;4984386;28;20294;-91
2023/09/21 01:33:50;;;;;;;;;;;;;;;24.19;40.40;100757.59;4979768;28;20032;-91
2023/09/21 01:36:37;;;;;;;;;;;;;;;24.18;40.48;100761.47;4983780;28;20059;-91
2023/09/21 01:39:09;;;;;;;;;;;;;;;24.17;40.35;100751.66;4984104;28;19925;-91
2023/09/21 01:41:35;;;;;;;;;;;;;;;24.19;40.36;100754.06;4982979;28;19925;-92
2023/09/21 01:44:01;;;;;;;;;;;;;;;24.19;40.38;100741.16;4976133;28;19926;-90
2023/09/21 01:46:33;;;;;;;;;;;;;;;24.20;40.35;100733.75;4995012;28;20005;-91
2023/09/21 01:49:03;;;;;;;;;;;;;;;24.23;40.26;100736.59;4992945;28;19932;-89
2023/09/21 01:51:32;;;;;;;;;;;;;;;24.25;40.30;100734.34;4991950;28;20017;-91
2023/09/21 01:53:58;;;;;;;;;;;;;;;24.24;40.42;100729.22;4986489;28;20020;-91
2023/09/21 01:56:28;;;;;;;;;;;;;;;24.22;40.37;100731.47;4985699;28;19930;-91
2023/09/21 01:58:53;;;;;;;;;;;;;;;24.21;40.34;100722.47;4981021;28;19953;-91
2023/09/21 02:01:19;;;;;;;;;;;;;;;24.21;40.46;100727.94;4983409;28;19981;-91
2023/09/21 02:03:48;;;;;;;;;;;;;;;24.22;40.31;100729.53;5003577;28;19929;-92
2023/09/21 02:06:18;;;;;;;;;;;;;;;24.20;40.49;100725.53;4977998;28;20374;-92
2023/09/21 02:08:44;;;;;;;;;;;;;;;24.20;40.33;100718.13;4996434;28;19922;-91
2023/09/21 02:11:10;;;;;;;;;;;;;;;24.16;40.50;100713.69;4981685;28;21347;-91
2023/09/21 02:13:37;;;;;;;;;;;;;;;24.13;40.60;100711.63;4983876;28;19922;-91
2023/09/21 02:16:02;;;;;;;;;;;;;;;24.10;40.50;100715.84;4993318;28;19926;-91
2023/09/21 02:18:30;;;;;;;;;;;;;;;24.10;40.44;100707.63;4980336;28;19981;-91
2023/09/21 02:20:57;;;;;;;;;;;;;;;24.10;40.44;100710.38;5000443;28;19976;-92
2023/09/21 02:23:24;;;;;;;;;;;;;;;24.10;40.49;100710.38;4998617;28;20320;-91
2023/09/21 02:25:52;;;;;;;;;;;;;;;24.11;40.57;100706.50;4998933;28;19952;-92
2023/09/21 02:28:17;;;;;;;;;;;;;;;24.11;40.49;100703.75;4979385;28;19988;-92
2023/09/21 02:30:47;;;;;;;;;;;;;;;24.09;40.57;100698.63;4981800;28;20400;-91
2023/09/21 02:33:16;;;;;;;;;;;;;;;24.07;40.68;100705.59;4980085;28;19936;-91
2023/09/21 02:35:41;;;;;;;;;;;;;;;24.06;40.59;100704.00;4982507;28;19926;-92
2023/09/21 02:38:11;;;;;;;;;;;;;;;24.04;40.73;100695.28;4982691;28;19924;-91
2023/09/21 02:40:39;;;;;;;;;;;;;;;24.03;40.71;100694.50;4982362;28;19926;-91
2023/09/21 02:43:09;;;;;;;;;;;;;;;24.02;40.67;100694.84;4965127;28;19922;-91
2023/09/21 02:45:36;;;;;;;;;;;;;;;23.98;40.73;100693.94;4979061;28;20392;-91
2023/09/21 02:48:02;;;;;;;;;;;;;;;23.95;40.94;100694.59;4982961;28;19933;-91
2023/09/21 02:50:29;;;;;;;;;;;;;;;23.93;40.75;100696.88;4983102;28;19925;-91
2023/09/21 02:52:55;;;;;;;;;;;;;;;23.92;40.98;100689.81;4986489;28;20052;-91
2023/09/21 02:55:44;;;;;;;;;;;;;;;23.89;40.85;100687.78;4997693;28;19926;-92
2023/09/21 02:58:11;;;;;;;;;;;;;;;23.89;40.74;100685.81;4982997;28;19925;-91
2023/09/21 03:00:39;;;;;;;;;;;;;;;23.89;40.70;100688.56;4995834;28;19922;-90
2023/09/21 03:03:10;;;;;;;;;;;;;;;23.88;41.06;100676.03;4998130;28;19918;-91
2023/09/21 03:05:38;;;;;;;;;;;;;;;23.84;40.81;100679.75;4984798;28;19926;-91
2023/09/21 03:08:05;;;;;;;;;;;;;;;23.78;41.04;100674.50;4983853;28;19918;-91
2023/09/21 03:10:32;;;;;;;;;;;;;;;23.78;40.80;100670.97;4978081;28;19955;-91
2023/09/21 03:13:00;;;;;;;;;;;;;;;23.78;41.01;100665.50;4981865;28;19917;-91
2023/09/21 03:15:27;;;;;;;;;;;;;;;23.78;40.80;100669.03;4981848;28;19972;-91
2023/09/21 03:17:55;;;;;;;;;;;;;;;23.78;40.96;100663.56;4982513;28;19976;-91
2023/09/21 03:20:37;;;;;;;;;;;;;;;23.77;40.92;100659.22;4982145;28;19926;-92
2023/09/21 03:23:12;;;;;;;;;;;;;;;23.76;40.84;100657.63;4981641;28;19933;-91
2023/09/21 03:25:50;;;;;;;;;;;;;;;23.76;40.93;100659.56;4982377;28;20004;-91
2023/09/21 03:28:22;;;;;;;;;;;;;;;23.74;41.01;100654.44;4999898;28;19950;-91
2023/09/21 03:30:51;;;;;;;;;;;;;;;23.72;41.19;100653.19;4996264;28;19922;-91
2023/09/21 03:33:20;;;;;;;;;;;;;;;23.70;41.10;100653.53;4979457;28;19933;-91
2023/09/21 03:35:45;;;;;;;;;;;;;;;23.70;41.01;100652.72;4997575;28;19925;-91
2023/09/21 03:38:18;;;;;;;;;;;;;;;23.70;41.07;100653.53;4980517;28;19925;-91
2023/09/21 03:40:51;;;;;;;;;;;;;;;23.69;41.10;100646.44;4977532;28;19941;-91
2023/09/21 03:43:25;;;;;;;;;;;;;;;23.67;41.13;100648.72;4982573;28;19960;-91
2023/09/21 03:45:51;;;;;;;;;;;;;;;23.67;41.14;100637.78;4976712;28;20068;-90
2023/09/21 03:48:28;;;;;;;;;;;;;;;23.66;40.89;100641.66;4983340;28;20008;-91
2023/09/21 03:50:55;;;;;;;;;;;;;;;23.65;41.18;100642.78;4983628;28;19925;-91
2023/09/21 03:53:22;;;;;;;;;;;;;;;23.62;41.11;100640.72;4984656;28;19922;-91
2023/09/21 03:56:10;;;;;;;;;;;;;;;23.62;41.21;100637.19;4982057;28;19918;-91
2023/09/21 03:58:38;;;;;;;;;;;;;;;23.60;41.02;100632.06;4981892;28;20398;-91
2023/09/21 04:01:08;;;;;;;;;;;;;;;23.58;41.43;100636.28;4978415;28;20085;-92
2023/09/21 04:03:35;;;;;;;;;;;;;;;23.57;41.10;100638.22;4983568;28;19929;-92
2023/09/21 04:06:02;;;;;;;;;;;;;;;23.56;41.28;100631.13;4983018;28;20099;-93
2023/09/21 04:08:31;;;;;;;;;;;;;;;23.54;41.22;100621.66;4982746;28;19917;-92
2023/09/21 04:11:02;;;;;;;;;;;;;;;23.52;41.47;100624.75;4983810;28;19922;-92
2023/09/21 04:13:32;;;;;;;;;;;;;;;23.51;41.21;100625.84;4994685;28;19921;-92
2023/09/21 04:15:58;;;;;;;;;;;;;;;23.49;41.48;100619.91;4985936;28;19926;-92
2023/09/21 04:18:24;;;;;;;;;;;;;;;23.48;41.33;100624.59;4983019;28;19918;-91
2023/09/21 04:20:50;;;;;;;;;;;;;;;23.45;41.44;100629.94;4980611;28;19929;-92
2023/09/21 04:23:15;;;;;;;;;;;;;;;23.43;41.36;100621.28;4981813;28;20302;-92
2023/09/21 04:25:42;;;;;;;;;;;;;;;23.41;41.37;100618.88;4980907;28;19988;-91
2023/09/21 04:28:08;;;;;;;;;;;;;;;23.39;41.46;100615.69;4980028;28;19953;-92
2023/09/21 04:30:34;;;;;;;;;;;;;;;23.37;41.44;100612.50;5000036;28;19953;-91
2023/09/21 04:33:01;;;;;;;;;;;;;;;23.36;41.45;100618.31;4984745;28;20050;-91
2023/09/21 04:35:27;;;;;;;;;;;;;;;23.36;41.49;100621.03;4999107;28;19946;-92
2023/09/21 04:37:58;;;;;;;;;;;;;;;23.36;41.46;100619.09;4984443;28;19922;-92
2023/09/21 04:40:26;;;;;;;;;;;;;;;23.36;41.38;100613.63;4988937;28;19940;-91
2023/09/21 04:42:52;;;;;;;;;;;;;;;23.35;41.52;100614.78;4985409;28;19960;-92
2023/09/21 04:45:18;;;;;;;;;;;;;;;23.33;41.49;100602.56;4985204;28;19930;-92
2023/09/21 04:47:49;;;;;;;;;;;;;;;23.29;41.83;100599.69;4979285;28;19917;-92
2023/09/21 04:50:18;;;;;;;;;;;;;;;23.28;41.79;100602.78;4987315;28;19917;-92
2023/09/21 04:52:50;;;;;;;;;;;;;;;23.28;41.64;100608.25;4985175;28;19932;-92
2023/09/21 04:55:18;;;;;;;;;;;;;;;23.26;41.55;100605.06;4986501;28;19987;-93
2023/09/21 04:57:45;;;;;;;;;;;;;;;23.26;41.66;100608.59;4985178;28;19925;-92
2023/09/21 05:00:13;;;;;;;;;;;;;;;23.27;41.60;100606.66;4985900;28;19922;-91
2023/09/21 05:02:39;;;;;;;;;;;;;;;23.29;41.65;100601.63;5003403;28;19921;-91
2023/09/21 05:05:04;;;;;;;;;;;;;;;23.31;41.62;100608.38;4985249;28;19929;-91
2023/09/21 05:07:37;;;;;;;;;;;;;;;23.33;41.80;100605.28;4984062;28;19921;-92
2023/09/21 05:10:13;;;;;;;;;;;;;;;23.33;41.69;100613.50;4984962;28;20398;-91
2023/09/21 05:12:39;;;;;;;;;;;;;;;23.34;41.69;100620.56;4986172;28;20005;-91
2023/09/21 05:15:07;;;;;;;;;;;;;;;23.31;41.93;100613.03;4975279;28;19930;-92
2023/09/21 05:17:36;;;;;;;;;;;;;;;23.25;41.93;100612.44;4987313;28;19921;-91
2023/09/21 05:20:06;;;;;;;;;;;;;;;23.25;42.05;100615.19;4983697;28;19921;-91
2023/09/21 05:22:34;;;;;;;;;;;;;;;23.25;41.93;100615.19;4984476;28;19930;-92
2023/09/21 05:25:01;;;;;;;;;;;;;;;23.23;42.02;100617.47;4985339;28;19914;-91
2023/09/21 05:27:29;;;;;;;;;;;;;;;23.24;41.81;100619.06;4985950;28;19925;-90
2023/09/21 05:29:55;;;;;;;;;;;;;;;23.29;42.00;100612.56;4981056;28;19930;-92
2023/09/21 05:32:22;;;;;;;;;;;;;;;23.32;41.84;100609.16;4986283;28;19922;-92
2023/09/21 05:34:52;;;;;;;;;;;;;;;23.40;41.73;100613.75;4984445;28;20374;-92
2023/09/21 05:37:19;;;;;;;;;;;;;;;23.45;41.91;100619.00;4984701;28;20032;-92
2023/09/21 05:39:47;;;;;;;;;;;;;;;23.49;41.65;100617.97;4982452;28;20402;-91
2023/09/21 05:42:18;;;;;;;;;;;;;;;23.54;41.69;100611.53;4984855;28;20331;-91
2023/09/21 05:44:45;;;;;;;;;;;;;;;23.59;41.74;100608.59;4982540;28;19918;-92
2023/09/21 05:47:11;;;;;;;;;;;;;;;23.62;41.79;100612.59;4983059;28;19922;-91
2023/09/21 05:49:37;;;;;;;;;;;;;;;23.66;41.71;100614.28;4982719;28;19925;-92
2023/09/21 05:52:11;;;;;;;;;;;;;;;23.69;41.86;100602.66;4983834;28;19922;-91
2023/09/21 05:54:40;;;;;;;;;;;;;;;23.75;41.65;100598.59;4982192;28;20481;-91
2023/09/21 05:57:05;;;;;;;;;;;;;;;23.80;41.57;100603.84;4985343;28;20024;-91
2023/09/21 05:59:31;;;;;;;;;;;;;;;23.86;41.64;100604.41;4985757;28;19918;-91
2023/09/21 06:01:57;;;;;;;;;;;;;;;23.89;41.59;100611.16;4983166;28;19972;-92
2023/09/21 06:04:26;;;;;;;;;;;;;;;23.90;41.67;100602.59;4981689;28;19917;-91
2023/09/21 06:06:54;;;;;;;;;;;;;;;23.91;41.66;100603.41;4984137;28;20441;-92
2023/09/21 06:09:23;;;;;;;;;;;;;;;23.95;41.69;100605.09;4999842;28;19925;-91
2023/09/21 06:11:50;;;;;;;;;;;;;;;23.99;41.43;100607.94;4983691;28;20017;-90
2023/09/21 06:14:17;;;;;;;;;;;;;;;24.06;41.64;100597.25;4980304;28;19930;-91
2023/09/21 06:16:44;;;;;;;;;;;;;;;24.15;41.55;100597.91;4977805;28;19933;-91
2023/09/21 06:19:17;;;;;;;;;;;;;;;24.25;41.38;100591.19;4984449;28;20386;-91
2023/09/21 06:21:42;;;;;;;;;;;;;;;24.37;41.27;100602.94;4986975;28;19921;-91
2023/09/21 06:24:08;;;;;;;;;;;;;;;24.46;41.23;100591.09;4985626;28;20401;-91
2023/09/21 06:26:34;;;;;;;;;;;;;;;24.54;41.09;100593.69;4987451;28;19917;-92
2023/09/21 06:29:02;;;;;;;;;;;;;;;24.62;41.14;100600.19;4987066;28;19926;-92
2023/09/21 06:31:30;;;;;;;;;;;;;;;24.64;41.08;100598.69;4990859;28;20049;-91
2023/09/21 06:34:05;;;;;;;;;;;;;;;24.72;40.94;100591.47;4998454;28;19953;-91
2023/09/21 06:36:35;;;;;;;;;;;;;;;24.78;40.89;100592.84;4987798;28;19925;-91
2023/09/21 06:39:04;;;;;;;;;;;;;;;24.85;41.00;100593.03;4996734;28;20127;-92
2023/09/21 06:41:30;;;;;;;;;;;;;;;24.94;40.95;100585.44;4987571;28;20390;-92
2023/09/21 06:43:58;;;;;;;;;;;;;;;25.05;40.88;100590.47;4982059;28;20040;-92
2023/09/21 06:46:26;;;;;;;;;;;;;;;25.17;40.72;100583.00;4983698;28;19977;-91
2023/09/21 06:48:53;;;;;;;;;;;;;;;25.26;40.86;100586.34;4986392;28;19992;-91
2023/09/21 06:51:21;;;;;;;;;;;;;;;25.36;40.63;100587.00;4985723;28;19925;-91
2023/09/21 06:53:49;;;;;;;;;;;;;;;25.43;40.71;100584.44;5001218;28;19925;-92
2023/09/21 06:56:21;;;;;;;;;;;;;;;25.53;40.57;100590.22;4982687;28;19918;-92
2023/09/21 06:58:47;;;;;;;;;;;;;;;25.62;40.41;100590.03;4986684;28;19925;-93
2023/09/21 07:01:15;;;;;;;;;;;;;;;25.72;40.29;100592.28;4985838;28;20389;-93
2023/09/21 07:03:45;;;;;;;;;;;;;;;25.83;40.23;100570.59;4992070;28;19921;-93
2023/09/21 07:06:13;;;;;;;;;;;;;;;25.96;40.13;100574.84;4991172;28;19921;-94
2023/09/21 07:08:40;;;;;;;;;;;;;;;26.04;40.06;100582.09;4985690;28;19925;-92
2023/09/21 07:11:06;;;;;;;;;;;;;;;26.14;39.98;100580.75;4985873;28;19929;-93
2023/09/21 07:13:35;;;;;;;;;;;;;;;26.25;39.94;100581.00;4979852;28;19922;-93
2023/09/21 07:16:00;;;;;;;;;;;;;;;26.35;39.92;100586.75;4979534;28;19957;-93
2023/09/21 07:18:27;;;;;;;;;;;;;;;26.41;39.76;100579.03;4997304;28;19957;-93
2023/09/21 07:20:54;;;;;;;;;;;;;;;26.49;39.83;100578.03;4993405;28;19926;-93
2023/09/21 07:23:21;;;;;;;;;;;;;;;26.56;39.65;100580.13;4980486;28;19925;-92
2023/09/21 07:25:53;;;;;;;;;;;;;;;26.62;39.60;100585.00;4987281;28;20055;-93
2023/09/21 07:28:21;;;;;;;;;;;;;;;26.73;39.64;100582.44;4987913;28;19957;-93
2023/09/21 07:30:52;;;;;;;;;;;;;;;26.84;39.60;100583.47;5001833;28;19921;-93
2023/09/21 07:33:20;;;;;;;;;;;;;;;27.01;39.52;100576.78;4986963;28;19929;-93
2023/09/21 07:35:51;;;;;;;;;;;;;;;27.21;39.26;100589.34;4989454;28;19921;-93
2023/09/21 07:38:21;;;;;;;;;;;;;;;27.36;39.09;100582.94;4987829;28;19917;-95
2023/09/21 07:40:47;;;;;;;;;;;;;;;27.46;38.87;100583.50;4988609;28;19936;-94
2023/09/21 07:43:16;;;;;;;;;;;;;;;27.52;39.03;100584.78;4985157;28;19922;-94
2023/09/21 07:45:50;;;;;;;;;;;;;;;27.60;38.89;100581.00;4979544;28;19922;-94
2023/09/21 07:48:20;;;;;;;;;;;;;;;27.73;38.95;100573.38;4981084;28;20021;-94
2023/09/21 07:50:46;;;;;;;;;;;;;;;27.91;38.82;100578.00;4983776;28;19925;-94
2023/09/21 07:53:13;;;;;;;;;;;;;;;28.12;38.54;100579.50;4979615;28;19926;-94
2023/09/21 07:55:40;;;;;;;;;;;;;;;28.25;38.18;100572.63;4978571;28;19926;-95
2023/09/21 07:58:07;;;;;;;;;;;;;;;28.33;38.19;100577.06;4982210;28;20393;-93
2023/09/21 08:00:33;;;;;;;;;;;;;;;28.35;38.07;100574.75;4985223;28;19949;-94
2023/09/21 08:03:02;;;;;;;;;;;;;;;28.35;38.08;100569.22;4983445;28;19988;-94
2023/09/21 08:05:32;;;;;;;;;;;;;;;28.38;37.95;100565.75;4985359;28;20032;-93
2023/09/21 08:08:00;;;;;;;;;;;;;;;28.42;37.86;100568.56;4984528;28;20013;-95
2023/09/21 08:10:32;;;;;;;;;;;;;;;28.46;37.94;100570.19;4986226;28;20460;-93
2023/09/21 08:12:58;;;;;;;;;;;;;;;28.41;38.00;100565.00;4987927;28;19966;-94
2023/09/21 08:15:23;;;;;;;;;;;;;;;28.36;37.95;100559.78;4986718;28;19957;-94
2023/09/21 08:17:48;;;;;;;;;;;;;;;28.30;38.07;100561.28;5000181;28;19961;-94
2023/09/21 08:20:14;;;;;;;;;;;;;;;28.27;38.04;100567.56;4984199;28;19918;-94
2023/09/21 08:22:41;;;;;;;;;;;;;;;28.19;38.15;100566.63;4986344;28;20399;-94
2023/09/21 08:25:08;;;;;;;;;;;;;;;28.19;38.28;100565.84;5000241;28;20379;-95
2023/09/21 08:27:35;;;;;;;;;;;;;;;28.33;38.28;100568.81;5001219;28;19918;-94
2023/09/21 08:30:03;;;;;;;;;;;;;;;28.57;37.82;100564.81;4982449;28;19932;-95
2023/09/21 08:32:30;;;;;;;;;;;;;;;28.73;37.58;100562.66;5003289;28;20025;-93
2023/09/21 08:34:56;;;;;;;;;;;;;;;28.82;37.82;100562.34;4986228;28;19938;-94
2023/09/21 08:37:24;;;;;;;;;;;;;;;28.97;37.29;100561.38;4986390;28;20049;-94
2023/09/21 08:39:50;;;;;;;;;;;;;;;29.16;37.11;100557.66;4985010;28;20237;-94
2023/09/21 08:42:16;;;;;;;;;;;;;;;29.35;36.99;100554.69;4985234;28;19933;-94
2023/09/21 08:44:43;;;;;;;;;;;;;;;29.50;36.98;100555.63;4981334;28;20131;-94
2023/09/21 08:47:19;;;;;;;;;;;;;;;29.67;36.59;100554.19;4974444;28;19957;-94
2023/09/21 08:49:46;;;;;;;;;;;;;;;29.82;36.43;100550.38;4985010;28;20028;-94
2023/09/21 08:52:15;;;;;;;;;;;;;;;29.99;36.31;100554.44;4982287;28;19957;-93
2023/09/21 08:54:43;;;;;;;;;;;;;;;30.12;36.37;100544.66;4986585;28;19921;-94
2023/09/21 08:57:13;;;;;;;;;;;;;;;30.25;36.01;100545.16;4987167;28;19925;-94
2023/09/21 08:59:45;;;;;;;;;;;;;;;30.42;36.28;100546.41;4997270;28;19918;-93
2023/09/21 09:02:15;;;;;;;;;;;;;;;30.59;35.89;100542.94;4983245;28;20019;-92
2023/09/21 09:04:41;;;;;;;;;;;;;;;30.70;35.54;100535.50;4996179;28;19917;-94
2023/09/21 09:07:07;;;;;;;;;;;;;;;30.83;35.52;100531.19;4992226;28;19918;-94
2023/09/21 09:09:33;;;;;;;;;;;;;;;30.94;35.38;100522.94;4992243;28;19946;-93
2023/09/21 09:12:01;;;;;;;;;;;;;;;31.09;35.19;100524.56;4982149;28;20454;-94
2023/09/21 09:14:26;;;;;;;;;;;;;;;31.23;34.93;100529.31;4983959;28;19926;-94
2023/09/21 09:16:52;;;;;;;;;;;;;;;31.43;34.92;100529.75;4976551;28;20452;-94
2023/09/21 09:19:18;;;;;;;;;;;;;;;31.61;34.33;100527.78;4983919;28;19925;-94
2023/09/21 09:21:47;;;;;;;;;;;;;;;31.71;34.86;100521.44;4984647;28;19917;-94
2023/09/21 09:24:14;;;;;;;;;;;;;;;31.85;34.80;100513.13;4984773;28;19926;-94
2023/09/21 09:26:41;;;;;;;;;;;;;;;31.99;34.35;100520.63;4986050;28;19925;-94
2023/09/21 09:29:16;;;;;;;;;;;;;;;32.14;34.26;100513.09;4985924;28;19917;-92
2023/09/21 09:31:44;;;;;;;;;;;;;;;32.27;33.59;100505.13;4999549;28;19921;-92
2023/09/21 09:34:12;;;;;;;;;;;;;;;32.40;33.91;100509.06;4982112;28;19972;-91
2023/09/21 09:36:41;;;;;;;;;;;;;;;32.48;33.68;100502.28;4980969;28;20028;-91
2023/09/21 09:39:10;;;;;;;;;;;;;;;32.60;33.46;100512.13;4987762;28;19928;-92
2023/09/21 09:41:50;;;;;;;;;;;;;;;32.76;33.50;100507.69;4982360;28;19928;-92
2023/09/21 09:44:19;;;;;;;;;;;;;;;32.85;32.49;100509.25;5001521;28;19972;-92
2023/09/21 09:46:46;;;;;;;;;;;;;;;32.93;32.80;100508.00;4980694;28;20382;-92
2023/09/21 09:49:17;;;;;;;;;;;;;;;33.05;32.70;100513.88;4982595;28;20406;-91
2023/09/21 09:51:46;;;;;;;;;;;;;;;33.20;32.58;100509.00;4981187;28;19926;-90
2023/09/21 09:54:14;;;;;;;;;;;;;;;33.30;31.94;100505.38;4981602;28;19934;-93
2023/09/21 09:56:46;;;;;;;;;;;;;;;33.33;32.12;100498.22;4982419;28;19926;-92
2023/09/21 09:59:12;;;;;;;;;;;;;;;33.40;32.03;100492.63;4979644;28;19925;-92
2023/09/21 10:01:44;;;;;;;;;;;;;;;33.48;32.17;100498.91;4995576;28;20264;-91
2023/09/21 10:04:10;;;;;;;;;;;;;;;33.61;31.83;100491.66;4979249;28;19932;-91
2023/09/21 10:06:41;;;;;;;;;;;;;;;33.77;31.60;100485.53;4980748;28;20008;-88
2023/09/21 10:09:13;;;;;;;;;;;;;;;33.88;31.74;100489.00;4978738;28;20024;-90
2023/09/21 10:11:42;;;;;;;;;;;;;;;33.96;32.02;100475.84;4980539;28;19940;-88
2023/09/21 10:14:11;;;;;;;;;;;;;;;34.10;31.84;100478.44;4981507;28;19933;-91
2023/09/21 10:16:46;;;;;;;;;;;;;;;34.20;30.93;100464.41;4987884;28;19921;-90
2023/09/21 10:19:43;;;;;;;;;;;;;;;34.30;30.99;100457.16;4974285;28;19932;-91
2023/09/21 10:22:21;;;;;;;;;;;;;;;34.45;31.05;100457.75;4979311;28;19925;-91
2023/09/21 10:24:53;;;;;;;;;;;;;;;34.61;30.83;100457.94;4977819;28;19937;-92
2023/09/21 10:27:19;;;;;;;;;;;;;;;34.75;30.67;100459.75;4978338;28;20301;-88
2023/09/21 10:29:45;;;;;;;;;;;;;;;34.83;30.64;100453.66;4992595;28;19917;-88
2023/09/21 10:32:11;;;;;;;;;;;;;;;34.88;30.24;100455.19;4975523;28;19929;-90
2023/09/21 10:34:45;;;;;;;;;;;;;;;34.78;28.90;100454.13;4995831;28;20422;-93
2023/09/21 10:37:16;;;;;;;;;;;;;;;34.68;29.92;100448.72;4977149;28;20164;-93
2023/09/21 10:39:44;;;;;;;;;;;;;;;34.75;30.11;100443.03;4980306;28;20408;-93
2023/09/21 10:42:09;;;;;;;;;;;;;;;34.82;29.93;100440.13;4978520;28;20363;-93
2023/09/21 10:44:56;;;;;;;;;;;;;;;34.94;29.35;100444.38;4987807;28;19922;-93
2023/09/21 10:47:44;;;;;;;;;;;;;;;34.90;29.06;100435.28;4980759;28;19932;-94
2023/09/21 10:50:13;;;;;;;;;;;;;;;34.97;29.26;100430.38;4980646;28;19925;-93
2023/09/21 10:52:42;;;;;;;;;;;;;;;35.16;29.50;100426.09;4997861;28;19961;-94
2023/09/21 10:55:14;;;;;;;;;;;;;;;35.31;29.04;100429.44;4977226;28;19932;-93
2023/09/21 10:57:40;;;;;;;;;;;;;;;35.51;28.58;100426.72;4976106;28;19917;-93
2023/09/21 11:00:13;;;;;;;;;;;;;;;35.64;28.71;100422.88;4976946;28;20417;-94
2023/09/21 11:02:44;;;;;;;;;;;;;;;35.72;28.37;100424.31;4978248;28;21833;-93
2023/09/21 11:05:11;;;;;;;;;;;;;;;35.83;28.69;100423.31;4992233;28;19926;-92
2023/09/21 11:07:40;;;;;;;;;;;;;;;35.94;28.28;100415.56;4996114;28;20176;-93
2023/09/21 11:10:10;;;;;;;;;;;;;;;35.84;28.11;100410.97;4975057;28;20240;-91
2023/09/21 11:12:40;;;;;;;;;;;;;;;35.79;28.14;100411.47;4972501;28;19921;-93
2023/09/21 11:15:16;;;;;;;;;;;;;;;35.77;27.77;100414.69;4979676;28;20068;-91
2023/09/21 11:17:48;;;;;;;;;;;;;;;35.64;27.70;100400.59;4973006;28;20561;-92
2023/09/21 11:20:20;;;;;;;;;;;;;;;35.61;27.88;100404.22;4978030;28;19972;-93
2023/09/21 11:22:48;;;;;;;;;;;;;;;35.77;27.92;100397.16;4988852;28;19956;-93
2023/09/21 11:25:22;;;;;;;;;;;;;;;35.93;26.92;100400.84;4988491;28;19933;-92
2023/09/21 11:27:51;;;;;;;;;;;;;;;36.10;27.67;100398.09;4981979;28;19926;-92
2023/09/21 11:30:17;;;;;;;;;;;;;;;36.11;27.25;100399.69;4988499;28;19934;-91
2023/09/21 11:32:49;;;;;;;;;;;;;;;36.08;26.89;100390.16;4988417;28;19929;-95
2023/09/21 11:35:16;;;;;;;;;;;;;;;36.06;26.82;100397.38;4987640;28;20576;-92
2023/09/21 11:37:45;;;;;;;;;;;;;;;36.14;26.86;100394.03;4990833;28;19934;-93
2023/09/21 11:40:13;;;;;;;;;;;;;;;36.13;26.72;100384.09;4987811;28;20382;-93
2023/09/21 11:42:48;;;;;;;;;;;;;;;36.15;26.37;100384.44;4987716;28;19976;-94
2023/09/21 11:45:20;;;;;;;;;;;;;;;36.19;26.67;100379.56;4990745;28;19918;-94
2023/09/21 11:47:49;;;;;;;;;;;;;;;36.31;26.61;100369.75;4989103;28;19925;-94
2023/09/21 11:50:25;;;;;;;;;;;;;;;36.39;26.22;100365.59;4997258;28;19933;-93
2023/09/21 11:52:54;;;;;;;;;;;;;;;36.46;26.36;100359.84;5002332;28;19964;-94
2023/09/21 11:55:30;;;;;;;;;;;;;;;36.59;26.24;100363.50;4990524;28;19934;-93
2023/09/21 11:58:25;;;;;;;;;;;;;;;36.75;25.86;100361.94;4994312;28;19918;-94
2023/09/21 12:01:35;;;;;;;;;;;;;;;36.84;25.69;100357.34;4988829;28;19922;-94
2023/09/21 12:03:41;;;;;;;;;;;;;;;36.97;25.65;100351.81;4993953;28;19922;-95
2023/09/21 12:06:09;;;;;;;;;;;;;;;37.09;25.37;100353.13;4989378;28;19921;-93
2023/09/21 12:08:40;;;;;;;;;;;;;;;37.14;25.65;100349.78;5004936;28;20688;-93
2023/09/21 12:11:07;;;;;;;;;;;;;;;37.12;24.60;100352.25;4989945;28;19917;-91
2023/09/21 12:13:35;;;;;;;;;;;;;;;37.13;24.78;100348.22;4987668;28;19929;-92
2023/09/21 12:16:03;;;;;;;;;;;;;;;37.20;24.81;100345.25;4982855;28;19969;-90
2023/09/21 12:18:30;;;;;;;;;;;;;;;37.24;24.51;100340.34;4980987;28;19918;-91
2023/09/21 12:20:57;;;;;;;;;;;;;;;37.33;24.79;100331.34;4986877;28;19922;-90
2023/09/21 12:23:23;;;;;;;;;;;;;;;37.50;24.90;100330.06;4983978;28;19940;-91
2023/09/21 12:25:49;;;;;;;;;;;;;;;37.72;25.02;100324.66;4987461;28;20386;-90
2023/09/21 12:28:17;;;;;;;;;;;;;;;37.83;24.26;100321.56;4980458;28;19922;-92
2023/09/21 12:30:44;;;;;;;;;;;;;;;37.70;23.66;100325.09;5001083;28;19925;-92
2023/09/21 12:33:14;;;;;;;;;;;;;;;37.65;24.33;100325.63;4984605;28;19964;-93
2023/09/21 12:35:43;;;;;;;;;;;;;;;37.61;24.25;100316.59;4983482;28;19944;-91
2023/09/21 12:38:11;;;;;;;;;;;;;;;37.65;24.15;100320.03;4985815;28;19932;-91
2023/09/21 12:40:41;;;;;;;;;;;;;;;37.80;23.91;100309.25;4984923;28;20009;-91
2023/09/21 12:43:10;;;;;;;;;;;;;;;37.98;23.93;100303.91;4986232;28;19926;-92
2023/09/21 12:45:37;;;;;;;;;;;;;;;38.13;23.70;100292.28;4987074;28;20008;-91